createdAt,value
2022-08-22T00:01:41.766Z,12.10
2022-08-22T00:02:52.803Z,10.02
2022-08-22T00:06:53.524Z,10.77
2022-08-22T00:12:14.983Z,10.37
2022-08-22T00:17:32.232Z,9.48
2022-08-22T00:22:51.381Z,9.63
2022-08-22T00:28:03.873Z,13.30
2022-08-22T00:33:21.073Z,7.97
2022-08-22T00:38:39.113Z,7.73
2022-08-22T00:44:00.678Z,8.63
2022-08-22T00:49:35.177Z,10.43
2022-08-22T00:55:08.410Z,11.40
2022-08-22T01:00:15.420Z,12.70
2022-08-22T01:05:42.140Z,14.63
2022-08-22T01:11:31.956Z,12.73
2022-08-22T01:16:59.322Z,13.07
2022-08-22T01:22:34.628Z,17.58
2022-08-22T01:28:08.280Z,14.80
2022-08-22T01:33:33.690Z,15.23
2022-08-22T01:38:41.976Z,13.07
2022-08-22T01:44:16.268Z,14.90
2022-08-22T01:49:33.793Z,12.07
2022-08-22T01:54:36.338Z,16.15
2022-08-22T01:59:53.033Z,15.93
2022-08-22T02:05:19.709Z,15.23
2022-08-22T02:10:46.151Z,17.80
2022-08-22T02:16:01.401Z,15.85
2022-08-22T02:21:10.842Z,15.53
2022-08-22T02:26:22.313Z,16.20
2022-08-22T02:31:42.509Z,15.00
2022-08-22T02:36:50.876Z,17.17
2022-08-22T02:41:58.434Z,17.02
2022-08-22T02:47:33.588Z,17.33
2022-08-22T02:52:52.453Z,15.60
2022-08-22T02:58:16.367Z,17.00
2022-08-22T03:03:29.148Z,14.00
2022-08-22T03:08:34.409Z,14.23
2022-08-22T03:13:52.799Z,13.23
2022-08-22T03:19:07.194Z,13.88
2022-08-22T03:24:35.204Z,15.17
2022-08-22T03:29:57.821Z,13.25
2022-08-22T03:35:03.794Z,14.57
2022-08-22T03:40:31.768Z,14.87
2022-08-22T03:45:56.303Z,14.10
2022-08-22T03:51:25.753Z,21.30
2022-08-22T03:56:40.280Z,11.57
2022-08-22T04:02:42.169Z,19.60
2022-08-22T04:07:55.146Z,15.73
2022-08-22T04:13:15.604Z,17.47
2022-08-22T04:18:35.595Z,17.55
2022-08-22T04:23:56.252Z,18.63
2022-08-22T04:29:06.239Z,15.33
2022-08-22T04:34:50.111Z,15.43
2022-08-22T04:40:04.104Z,17.60
2022-08-22T04:45:48.899Z,17.47
2022-08-22T04:51:28.696Z,20.70
2022-08-22T04:57:02.863Z,16.63
2022-08-22T05:02:09.418Z,17.50
2022-08-22T05:07:23.119Z,19.40
2022-08-22T05:12:32.227Z,19.37
2022-08-22T05:17:36.309Z,15.37
2022-08-22T05:22:43.507Z,19.27
2022-08-22T05:27:51.225Z,18.45
2022-08-22T05:33:14.921Z,17.37
2022-08-22T05:38:20.605Z,16.48
2022-08-22T05:43:25.707Z,18.33
2022-08-22T05:48:43.862Z,19.60
2022-08-22T05:53:50.703Z,15.35
2022-08-22T05:59:08.175Z,15.52
2022-08-22T06:04:32.254Z,14.97
2022-08-22T06:09:54.980Z,15.70
2022-08-22T06:15:28.953Z,16.23
2022-08-22T06:20:39.393Z,14.13
2022-08-22T06:25:45.705Z,13.90
2022-08-22T06:30:51.067Z,16.60
2022-08-22T06:36:20.676Z,14.23
2022-08-22T06:41:27.439Z,15.05
2022-08-22T06:46:30.870Z,12.93
2022-08-22T06:51:34.725Z,14.73
2022-08-22T06:56:41.275Z,15.57
2022-08-22T07:01:53.237Z,13.53
2022-08-22T07:06:57.616Z,14.20
2022-08-22T07:12:03.546Z,8.52
2022-08-22T07:17:10.736Z,17.40
2022-08-22T07:22:30.585Z,10.67
2022-08-22T07:27:41.998Z,13.05
2022-08-22T07:32:56.633Z,10.67
2022-08-22T07:38:25.796Z,14.53
2022-08-22T07:44:00.298Z,10.02
2022-08-22T07:49:23.245Z,8.60
2022-08-22T07:54:47.145Z,9.60
2022-08-22T07:59:53.347Z,8.95
2022-08-22T08:04:57.931Z,7.80
2022-08-22T08:10:01.796Z,6.43
2022-08-22T08:15:08.207Z,7.35
2022-08-22T08:20:13.659Z,7.95
2022-08-22T08:25:28.248Z,7.90
2022-08-22T08:30:37.618Z,9.50
2022-08-22T08:36:02.866Z,9.65
2022-08-22T08:41:51.021Z,12.23
2022-08-22T08:47:00.085Z,11.50
2022-08-22T08:52:14.655Z,10.27
2022-08-22T08:57:34.013Z,8.93
2022-08-22T09:02:36.815Z,11.40
2022-08-22T09:08:00.175Z,13.00
2022-08-22T09:13:12.980Z,12.15
2022-08-22T09:18:27.408Z,11.07
2022-08-22T09:24:06.175Z,12.82
2022-08-22T09:29:14.531Z,12.73
2022-08-22T09:34:44.998Z,13.37
2022-08-22T09:40:17.308Z,12.30
2022-08-22T09:45:54.458Z,15.88
2022-08-22T09:51:33.277Z,16.45
2022-08-22T09:56:54.705Z,17.40
2022-08-22T10:02:00.592Z,13.45
2022-08-22T10:07:22.671Z,9.93
2022-08-22T10:12:36.194Z,6.57
2022-08-22T10:17:51.698Z,4.93
2022-08-22T10:23:18.886Z,6.00
2022-08-22T10:28:48.473Z,6.80
2022-08-22T10:34:21.301Z,6.63
2022-08-22T10:39:53.308Z,6.60
2022-08-22T10:45:37.328Z,7.07
2022-08-22T10:51:22.166Z,8.33
2022-08-22T10:56:51.371Z,12.00
2022-08-22T11:02:19.994Z,7.95
2022-08-22T11:07:48.662Z,8.83
2022-08-22T11:13:11.971Z,8.50
2022-08-22T11:18:36.403Z,12.10
2022-08-22T11:23:45.239Z,8.77
2022-08-22T11:29:20.375Z,10.20
2022-08-22T11:34:58.438Z,14.32
2022-08-22T11:40:22.514Z,12.77
2022-08-22T11:45:30.217Z,10.17
2022-08-22T11:50:45.417Z,11.98
2022-08-22T11:56:05.565Z,11.55
2022-08-22T12:01:34.396Z,12.03
2022-08-22T12:06:49.672Z,12.02
2022-08-22T12:12:20.189Z,13.88
2022-08-22T12:17:55.780Z,11.13
2022-08-22T12:23:09.760Z,12.53
2022-08-22T12:28:12.374Z,13.82
2022-08-22T12:33:48.297Z,13.27
2022-08-22T12:39:22.321Z,11.50
2022-08-22T12:44:33.689Z,13.15
2022-08-22T12:49:56.749Z,12.05
2022-08-22T12:55:15.407Z,11.10
2022-08-22T13:00:47.459Z,13.10
2022-08-22T13:05:56.669Z,14.38
2022-08-22T13:11:23.385Z,13.03
2022-08-22T13:16:36.473Z,13.17
2022-08-22T13:21:53.474Z,14.90
2022-08-22T13:27:01.121Z,11.57
2022-08-22T13:32:04.610Z,12.83
2022-08-22T13:37:13.416Z,10.98
2022-08-22T13:42:30.269Z,13.57
2022-08-22T13:47:39.514Z,14.63
2022-08-22T13:52:52.319Z,13.07
2022-08-22T13:58:18.531Z,12.48
2022-08-22T14:03:39.873Z,12.53
2022-08-22T14:08:45.805Z,15.40
2022-08-22T14:13:49.797Z,13.85
2022-08-22T14:18:58.538Z,12.90
2022-08-22T14:24:25.893Z,13.90
2022-08-22T14:29:54.456Z,12.20
2022-08-22T14:35:21.673Z,13.77
2022-08-22T14:40:38.396Z,15.63
2022-08-22T14:45:45.522Z,14.35
2022-08-22T14:51:05.907Z,11.85
2022-08-22T14:56:18.300Z,16.13
2022-08-22T15:01:25.080Z,14.57
2022-08-22T15:06:47.841Z,10.70
2022-08-22T15:11:50.978Z,12.43
2022-08-22T15:16:57.392Z,13.00
2022-08-22T15:22:27.564Z,12.93
2022-08-22T15:27:32.111Z,11.40
2022-08-22T15:32:50.803Z,11.37
2022-08-22T15:38:05.858Z,10.15
2022-08-22T15:43:21.770Z,8.40
2022-08-22T15:48:57.773Z,8.17
2022-08-22T15:54:24.877Z,7.73
2022-08-22T15:59:48.082Z,8.27
2022-08-22T16:05:39.199Z,10.50
2022-08-22T16:11:01.611Z,9.40
2022-08-22T16:16:04.183Z,7.18
2022-08-22T16:21:16.195Z,8.93
2022-08-22T16:26:23.860Z,7.80
2022-08-22T16:31:33.326Z,6.32
2022-08-22T16:36:41.060Z,5.82
2022-08-22T16:41:44.448Z,7.47
2022-08-22T16:46:48.407Z,6.10
2022-08-22T16:52:29.608Z,6.68
2022-08-22T16:58:10.174Z,7.53
2022-08-22T17:04:16.385Z,7.27
2022-08-22T17:09:52.576Z,9.25
2022-08-22T17:15:22.513Z,7.93
2022-08-22T17:20:57.844Z,7.80
2022-08-22T17:26:22.752Z,11.25
2022-08-22T17:32:00.614Z,8.60
2022-08-22T17:37:11.508Z,9.97
2022-08-22T17:42:37.582Z,10.93
2022-08-22T17:48:00.774Z,12.75
2022-08-22T17:53:11.552Z,14.55
2022-08-22T17:58:37.609Z,15.50
2022-08-22T18:03:52.726Z,15.07
2022-08-22T18:09:15.234Z,13.48
2022-08-22T18:14:52.692Z,15.83
2022-08-22T18:20:20.513Z,13.23
2022-08-22T18:25:23.074Z,14.45
2022-08-22T18:30:30.196Z,13.33
2022-08-22T18:35:53.855Z,13.73
2022-08-22T18:41:29.165Z,15.32
2022-08-22T18:46:42.336Z,13.63
2022-08-22T18:51:45.201Z,18.48
2022-08-22T18:57:08.006Z,16.80
2022-08-22T19:02:34.958Z,19.97
2022-08-22T19:08:02.520Z,17.42
2022-08-22T19:13:43.648Z,18.75
2022-08-22T19:19:01.034Z,17.20
2022-08-22T19:24:12.455Z,18.23
2022-08-22T19:29:17.851Z,17.30
2022-08-22T19:34:29.406Z,19.88
2022-08-22T19:39:41.160Z,19.93
2022-08-22T19:44:54.127Z,19.15
2022-08-22T19:50:13.414Z,19.13
2022-08-22T19:55:21.920Z,16.90
2022-08-22T20:00:44.694Z,20.55
2022-08-22T20:06:43.402Z,17.42
2022-08-22T20:11:49.594Z,15.97
2022-08-22T20:17:25.846Z,17.77
2022-08-22T20:22:34.834Z,17.25
2022-08-22T20:27:43.541Z,17.83
2022-08-22T20:32:58.115Z,17.30
2022-08-22T20:38:06.793Z,15.98
2022-08-22T20:43:23.204Z,17.73
2022-08-22T20:48:40.690Z,22.43
2022-08-22T20:53:46.285Z,18.77
2022-08-22T20:58:52.516Z,18.27
2022-08-22T21:03:55.656Z,19.33
2022-08-22T21:09:32.651Z,21.58
2022-08-22T21:14:44.334Z,19.30
2022-08-22T21:19:47.096Z,20.43
2022-08-22T21:24:49.630Z,22.92
2022-08-22T21:29:52.196Z,25.70
2022-08-22T21:34:54.979Z,22.33
2022-08-22T21:40:14.506Z,21.35
2022-08-22T21:45:31.710Z,27.38
2022-08-22T21:50:38.214Z,24.03
2022-08-22T21:55:46.747Z,24.40
2022-08-22T22:01:04.297Z,23.75
2022-08-22T22:06:07.685Z,19.67
2022-08-22T22:11:15.563Z,23.17
2022-08-22T22:16:22.314Z,23.75
2022-08-22T22:21:24.937Z,18.83
2022-08-22T22:26:28.837Z,19.03
2022-08-22T22:31:31.714Z,18.50
2022-08-22T22:36:36.616Z,22.00
2022-08-22T22:41:39.339Z,21.63
2022-08-22T22:46:42.118Z,23.40
2022-08-22T22:51:44.629Z,21.52
2022-08-22T22:56:47.991Z,21.40
2022-08-22T23:02:07.618Z,22.60
2022-08-22T23:07:11.685Z,20.75
2022-08-22T23:12:15.933Z,23.63
2022-08-22T23:17:19.137Z,21.53
2022-08-22T23:22:21.642Z,29.17
2022-08-22T23:27:24.187Z,24.65
2022-08-22T23:32:26.696Z,25.57
2022-08-22T23:37:29.263Z,25.60
2022-08-22T23:42:31.866Z,26.92
2022-08-22T23:47:34.384Z,22.40
2022-08-22T23:52:36.951Z,19.70
2022-08-22T23:57:39.465Z,19.05
